createdAt,value
2023-01-19T00:02:04.342Z,4.00
2023-01-19T00:04:30.818Z,3.75
2023-01-19T00:06:57.843Z,4.00
2023-01-19T00:09:24.260Z,4.60
2023-01-19T00:11:50.680Z,4.00
2023-01-19T00:14:17.158Z,3.00
2023-01-19T00:16:43.695Z,3.00
2023-01-19T00:19:10.173Z,3.00
2023-01-19T00:21:36.684Z,4.20
2023-01-19T00:24:03.237Z,2.00
2023-01-19T00:26:29.860Z,3.00
2023-01-19T00:28:56.421Z,3.00
2023-01-19T00:31:22.936Z,2.20
2023-01-19T00:33:50.168Z,3.00
2023-01-19T00:36:16.765Z,2.00
2023-01-19T00:38:43.411Z,3.00
2023-01-19T00:41:10.201Z,4.00
2023-01-19T00:43:36.662Z,3.00
2023-01-19T00:46:03.326Z,4.00
2023-01-19T00:48:30.759Z,3.00
2023-01-19T00:50:57.214Z,3.00
2023-01-19T00:53:23.798Z,4.40
2023-01-19T00:55:50.218Z,4.00
2023-01-19T00:58:16.674Z,3.00
2023-01-19T01:00:43.217Z,4.00
2023-01-19T01:03:09.934Z,4.00
2023-01-19T01:05:36.444Z,4.00
2023-01-19T01:08:03.151Z,4.00
2023-01-19T01:10:29.678Z,3.00
2023-01-19T01:12:57.683Z,5.00
2023-01-19T01:15:26.459Z,3.40
2023-01-19T01:17:53.225Z,4.00
2023-01-19T01:20:24.523Z,4.00
2023-01-19T01:22:52.208Z,4.00
2023-01-19T01:25:20.067Z,3.00
2023-01-19T01:27:46.593Z,3.60
2023-01-19T01:30:13.969Z,4.00
2023-01-19T01:32:40.790Z,3.00
2023-01-19T01:35:09.171Z,3.00
2023-01-19T01:37:36.181Z,2.00
2023-01-19T01:40:02.836Z,4.00
2023-01-19T01:42:30.909Z,2.40
2023-01-19T01:44:58.830Z,2.00
2023-01-19T01:47:25.327Z,3.00
2023-01-19T01:49:55.050Z,4.00
2023-01-19T01:52:23.155Z,3.00
2023-01-19T01:54:49.807Z,3.00
2023-01-19T01:57:16.371Z,3.00
2023-01-19T01:59:45.191Z,2.75
2023-01-19T02:02:45.367Z,2.40
2023-01-19T02:05:22.995Z,2.00
2023-01-19T02:08:11.711Z,1.00
2023-01-19T02:10:56.696Z,2.00
2023-01-19T02:13:23.529Z,3.00
2023-01-19T02:15:55.126Z,4.00
2023-01-19T02:18:22.657Z,2.33
2023-01-19T02:21:01.213Z,3.00
2023-01-19T02:23:35.655Z,1.00
2023-01-19T02:26:02.450Z,2.00
2023-01-19T02:28:29.799Z,2.00
2023-01-19T02:30:56.360Z,3.00
2023-01-19T02:33:22.880Z,2.50
2023-01-19T02:35:50.958Z,2.00
2023-01-19T02:38:19.105Z,3.00
2023-01-19T02:40:46.070Z,2.00
2023-01-19T02:43:12.517Z,2.00
2023-01-19T02:45:39.675Z,2.00
2023-01-19T02:48:06.310Z,3.00
2023-01-19T02:50:35.643Z,2.00
2023-01-19T02:53:12.503Z,3.00
2023-01-19T02:55:40.266Z,2.00
2023-01-19T02:58:15.324Z,2.00
2023-01-19T03:00:52.207Z,3.00
2023-01-19T03:03:18.701Z,2.60
2023-01-19T03:05:59.270Z,3.00
2023-01-19T03:08:38.844Z,4.00
2023-01-19T03:11:06.235Z,3.60
2023-01-19T03:13:41.864Z,3.00
2023-01-19T03:16:18.739Z,3.00
2023-01-19T03:18:48.235Z,3.00
2023-01-19T03:21:16.168Z,3.00
2023-01-19T03:23:45.346Z,3.00
2023-01-19T03:26:14.499Z,3.00
2023-01-19T03:28:42.101Z,2.80
2023-01-19T03:31:13.081Z,3.00
2023-01-19T03:33:42.641Z,2.00
2023-01-19T03:36:13.903Z,3.60
2023-01-19T03:38:42.652Z,2.20
2023-01-19T03:41:11.718Z,3.00
2023-01-19T03:43:39.166Z,3.00
2023-01-19T03:46:06.493Z,2.20
2023-01-19T03:48:33.504Z,2.60
2023-01-19T03:51:04.251Z,3.00
2023-01-19T03:53:30.724Z,4.00
2023-01-19T03:55:57.369Z,3.25
2023-01-19T03:58:23.889Z,3.00
2023-01-19T04:00:50.447Z,3.40
2023-01-19T04:03:17.964Z,2.00
2023-01-19T04:05:44.592Z,4.00
2023-01-19T04:08:11.964Z,4.00
2023-01-19T04:10:39.071Z,4.00
2023-01-19T04:13:05.518Z,3.00
2023-01-19T04:15:32.354Z,4.00
2023-01-19T04:17:59.537Z,4.00
2023-01-19T04:20:28.101Z,4.00
2023-01-19T04:22:59.180Z,3.50
2023-01-19T04:25:25.802Z,4.00
2023-01-19T04:27:53.139Z,3.00
2023-01-19T04:30:19.694Z,4.00
2023-01-19T04:32:46.238Z,4.00
2023-01-19T04:35:12.754Z,4.00
2023-01-19T04:37:39.235Z,4.00
2023-01-19T04:40:06.207Z,4.00
2023-01-19T04:42:32.634Z,5.00
2023-01-19T04:44:59.095Z,5.00
2023-01-19T04:47:25.538Z,4.00
2023-01-19T04:49:52.134Z,4.00
2023-01-19T04:52:18.576Z,5.00
2023-01-19T04:54:45.054Z,7.50
2023-01-19T04:57:11.563Z,5.00
2023-01-19T04:59:38.014Z,4.00
2023-01-19T05:02:04.567Z,7.00
2023-01-19T05:04:31.060Z,3.00
2023-01-19T05:06:58.343Z,3.75
2023-01-19T05:09:25.982Z,4.00
2023-01-19T05:11:52.445Z,4.00
2023-01-19T05:14:18.985Z,4.00
2023-01-19T05:16:45.461Z,9.00
2023-01-19T05:19:12.105Z,4.00
2023-01-19T05:21:38.607Z,4.00
2023-01-19T05:24:05.206Z,3.00
2023-01-19T05:26:31.726Z,4.00
2023-01-19T05:28:58.233Z,5.00
2023-01-19T05:31:24.815Z,5.00
2023-01-19T05:33:51.587Z,6.20
2023-01-19T05:36:18.292Z,4.00
2023-01-19T05:38:44.765Z,5.00
2023-01-19T05:41:11.232Z,7.00
2023-01-19T05:43:37.731Z,4.00
2023-01-19T05:46:05.202Z,4.00
2023-01-19T05:48:31.692Z,5.00
2023-01-19T05:50:58.751Z,3.00
2023-01-19T05:53:25.865Z,5.00
2023-01-19T05:55:52.387Z,4.00
2023-01-19T05:58:18.871Z,5.00
2023-01-19T06:00:45.496Z,4.20
2023-01-19T06:03:12.532Z,7.00
2023-01-19T06:05:39.553Z,4.00
2023-01-19T06:08:06.256Z,5.25
2023-01-19T06:10:32.942Z,4.40
2023-01-19T06:12:59.723Z,8.00
2023-01-19T06:15:26.524Z,8.00
2023-01-19T06:17:53.043Z,9.00
2023-01-19T06:20:19.651Z,7.00
2023-01-19T06:22:46.072Z,7.25
2023-01-19T06:25:12.621Z,9.00
2023-01-19T06:27:40.085Z,7.00
2023-01-19T06:30:06.922Z,8.00
2023-01-19T06:32:33.416Z,8.00
2023-01-19T06:35:00.127Z,8.00
2023-01-19T06:37:28.381Z,7.00
2023-01-19T06:39:54.839Z,7.00
2023-01-19T06:42:21.573Z,7.00
2023-01-19T06:44:48.150Z,8.00
2023-01-19T06:47:17.958Z,7.00
2023-01-19T06:49:44.588Z,10.00
2023-01-19T06:52:12.326Z,9.75
2023-01-19T06:54:38.885Z,11.00
2023-01-19T06:57:05.395Z,12.00
2023-01-19T06:59:31.923Z,11.00
2023-01-19T07:01:59.248Z,11.00
2023-01-19T07:04:27.164Z,8.25
2023-01-19T07:06:53.704Z,8.75
2023-01-19T07:09:20.564Z,8.40
2023-01-19T07:11:48.225Z,10.00
2023-01-19T07:14:14.931Z,11.00
2023-01-19T07:16:41.509Z,10.00
2023-01-19T07:19:10.713Z,9.20
2023-01-19T07:21:37.270Z,7.50
2023-01-19T07:24:03.822Z,9.20
2023-01-19T07:26:30.909Z,9.00
2023-01-19T07:28:57.348Z,14.75
2023-01-19T07:31:24.099Z,20.00
2023-01-19T07:33:50.626Z,18.80
2023-01-19T07:36:17.099Z,13.00
2023-01-19T07:38:43.603Z,15.00
2023-01-19T07:41:10.132Z,11.00
2023-01-19T07:43:36.729Z,16.75
2023-01-19T07:46:04.508Z,17.00
2023-01-19T07:48:31.225Z,18.00
2023-01-19T07:51:05.847Z,10.00
2023-01-19T07:53:32.871Z,10.00
2023-01-19T07:55:59.464Z,15.00
2023-01-19T07:58:26.570Z,6.00
2023-01-19T08:00:53.266Z,9.00
2023-01-19T08:03:20.346Z,13.00
2023-01-19T08:05:49.778Z,15.00
2023-01-19T08:08:16.248Z,12.00
2023-01-19T08:10:42.831Z,12.50
2023-01-19T08:13:09.307Z,24.00
2023-01-19T08:15:35.762Z,9.80
2023-01-19T08:18:02.847Z,10.50
2023-01-19T08:20:29.995Z,14.80
2023-01-19T08:23:00.434Z,20.00
2023-01-19T08:25:31.831Z,14.00
2023-01-19T08:27:58.463Z,12.00
2023-01-19T08:30:26.899Z,18.00
2023-01-19T08:32:54.522Z,11.00
2023-01-19T08:35:22.150Z,8.00
2023-01-19T08:37:48.612Z,7.60
2023-01-19T08:40:15.192Z,10.00
2023-01-19T08:42:41.690Z,12.20
2023-01-19T08:45:09.339Z,9.00
2023-01-19T08:47:35.967Z,12.00
2023-01-19T08:50:02.447Z,12.25
2023-01-19T08:52:29.417Z,9.20
2023-01-19T08:54:55.864Z,12.00
2023-01-19T08:57:22.318Z,15.60
2023-01-19T08:59:48.814Z,15.00
2023-01-19T09:02:15.331Z,12.00
2023-01-19T09:04:41.825Z,15.20
2023-01-19T09:07:08.330Z,8.00
2023-01-19T09:09:37.887Z,9.50
2023-01-19T09:12:04.484Z,11.00
2023-01-19T09:14:31.024Z,13.00
2023-01-19T09:16:57.564Z,9.20
2023-01-19T09:19:24.024Z,10.25
2023-01-19T09:21:50.990Z,15.00
2023-01-19T09:24:17.481Z,11.00
2023-01-19T09:26:43.929Z,19.00
2023-01-19T09:29:10.343Z,25.00
2023-01-19T09:31:37.261Z,25.00
2023-01-19T09:34:03.735Z,34.75
2023-01-19T09:36:30.306Z,27.00
2023-01-19T09:38:56.759Z,14.00
2023-01-19T09:41:25.171Z,21.80
2023-01-19T09:43:54.736Z,23.20
2023-01-19T09:46:25.399Z,28.20
2023-01-19T09:48:56.965Z,10.60
2023-01-19T09:51:27.650Z,13.00
2023-01-19T09:54:06.559Z,16.00
2023-01-19T09:56:33.257Z,12.00
2023-01-19T09:59:00.255Z,12.00
2023-01-19T10:01:49.867Z,13.60
2023-01-19T10:04:25.660Z,10.00
2023-01-19T10:06:55.012Z,10.00
2023-01-19T10:09:26.031Z,6.25
2023-01-19T10:11:56.725Z,11.00
2023-01-19T10:14:31.883Z,10.80
2023-01-19T10:17:07.685Z,8.00
2023-01-19T10:19:38.124Z,7.33
2023-01-19T10:22:11.554Z,5.20
2023-01-19T10:24:40.368Z,8.00
2023-01-19T10:27:13.568Z,11.50
2023-01-19T10:29:40.120Z,9.00
2023-01-19T10:32:17.108Z,9.00
2023-01-19T10:34:43.863Z,5.67
2023-01-19T10:37:30.770Z,8.25
2023-01-19T10:39:59.367Z,8.00
2023-01-19T10:42:28.934Z,5.40
2023-01-19T10:44:55.794Z,8.00
2023-01-19T10:47:25.598Z,6.40
2023-01-19T10:49:52.429Z,14.00
2023-01-19T10:52:33.128Z,9.40
2023-01-19T10:55:01.062Z,13.80
2023-01-19T10:57:27.570Z,6.60
2023-01-19T10:59:54.095Z,14.50
2023-01-19T11:02:43.615Z,17.60
2023-01-19T11:05:23.589Z,18.00
2023-01-19T11:07:50.119Z,4.80
2023-01-19T11:10:16.865Z,8.00
2023-01-19T11:12:46.306Z,7.00
2023-01-19T11:15:15.577Z,8.20
2023-01-19T11:17:45.007Z,7.00
2023-01-19T11:20:19.406Z,9.80
2023-01-19T11:22:48.062Z,4.00
2023-01-19T11:25:28.530Z,23.75
2023-01-19T11:27:54.988Z,15.00
2023-01-19T11:30:24.354Z,8.80
2023-01-19T11:32:50.969Z,14.40
2023-01-19T11:35:36.331Z,10.00
2023-01-19T11:38:06.757Z,11.50
2023-01-19T11:40:34.791Z,21.20
2023-01-19T11:43:01.840Z,19.50
2023-01-19T11:45:28.715Z,17.75
2023-01-19T11:47:57.134Z,9.80
2023-01-19T11:50:32.046Z,15.25
2023-01-19T11:53:06.027Z,16.40
2023-01-19T11:55:47.518Z,25.67
2023-01-19T11:58:18.220Z,21.80
2023-01-19T12:00:47.021Z,8.00
2023-01-19T12:03:19.252Z,8.00
2023-01-19T12:05:52.903Z,16.80
2023-01-19T12:08:23.318Z,4.60
2023-01-19T12:10:50.578Z,10.00
2023-01-19T12:13:24.744Z,21.60
2023-01-19T12:16:03.482Z,13.60
2023-01-19T12:18:34.055Z,17.00
2023-01-19T12:21:03.698Z,20.40
2023-01-19T12:23:42.589Z,11.00
2023-01-19T12:26:14.782Z,14.50
2023-01-19T12:28:42.880Z,12.00
2023-01-19T12:31:09.854Z,10.00
2023-01-19T12:33:40.340Z,12.25
2023-01-19T12:36:25.469Z,6.00
2023-01-19T12:39:14.872Z,8.50
2023-01-19T12:41:41.772Z,7.20
2023-01-19T12:44:16.140Z,12.60
2023-01-19T12:46:50.739Z,19.25
2023-01-19T12:49:26.382Z,3.20
2023-01-19T12:52:11.904Z,9.60
2023-01-19T12:54:40.390Z,5.00
2023-01-19T12:57:09.535Z,9.00
2023-01-19T12:59:37.162Z,5.75
2023-01-19T13:02:27.199Z,5.20
2023-01-19T13:05:12.625Z,5.00
2023-01-19T13:07:57.889Z,3.00
2023-01-19T13:10:43.099Z,3.00
2023-01-19T13:13:17.431Z,5.00
2023-01-19T13:15:44.636Z,5.00
2023-01-19T13:18:17.809Z,5.60
2023-01-19T13:20:46.743Z,10.00
2023-01-19T13:23:21.356Z,7.00
2023-01-19T13:25:49.886Z,4.00
2023-01-19T13:28:18.242Z,3.00
2023-01-19T13:31:05.240Z,8.00
2023-01-19T13:33:39.164Z,10.00
2023-01-19T13:36:15.966Z,5.25
2023-01-19T13:38:42.951Z,3.50
2023-01-19T13:41:09.592Z,14.80
2023-01-19T13:43:37.880Z,6.00
2023-01-19T13:46:04.606Z,6.00
2023-01-19T13:48:31.583Z,5.00
2023-01-19T13:50:59.252Z,3.80
2023-01-19T13:53:25.859Z,3.00
2023-01-19T13:56:08.708Z,8.60
2023-01-19T13:58:35.400Z,4.00
2023-01-19T14:01:02.267Z,12.60
2023-01-19T14:03:28.777Z,3.00
2023-01-19T14:05:55.392Z,4.00
2023-01-19T14:08:22.485Z,5.00
2023-01-19T14:10:49.005Z,7.00
2023-01-19T14:13:15.892Z,4.00
2023-01-19T14:15:43.093Z,3.00
2023-01-19T14:18:18.944Z,6.00
2023-01-19T14:20:56.242Z,8.00
2023-01-19T14:23:40.662Z,6.00
2023-01-19T14:26:27.359Z,6.00
2023-01-19T14:28:53.882Z,8.80
2023-01-19T14:31:24.643Z,9.80
2023-01-19T14:33:54.624Z,7.00
2023-01-19T14:36:24.033Z,5.00
2023-01-19T14:38:51.734Z,5.80
2023-01-19T14:41:26.763Z,9.25
2023-01-19T14:43:56.071Z,6.50
2023-01-19T14:46:23.582Z,11.00
2023-01-19T14:48:51.571Z,12.00
2023-01-19T14:51:23.579Z,2.00
2023-01-19T14:53:52.567Z,4.00
2023-01-19T14:56:29.732Z,5.80
2023-01-19T14:58:57.293Z,5.00
2023-01-19T15:01:24.776Z,8.00
2023-01-19T15:03:51.338Z,5.00
2023-01-19T15:06:19.250Z,7.00
2023-01-19T15:08:46.304Z,4.40
2023-01-19T15:11:22.273Z,5.40
2023-01-19T15:13:49.064Z,16.00
2023-01-19T15:16:15.547Z,6.60
2023-01-19T15:18:42.072Z,8.00
2023-01-19T15:21:12.266Z,9.00
2023-01-19T15:23:38.707Z,5.80
2023-01-19T15:26:05.445Z,3.25
2023-01-19T15:28:32.626Z,6.60
2023-01-19T15:30:59.775Z,7.40
2023-01-19T15:33:27.233Z,6.80
2023-01-19T15:35:53.945Z,5.00
2023-01-19T15:38:20.494Z,7.00
2023-01-19T15:40:51.185Z,9.00
2023-01-19T15:43:18.472Z,23.00
2023-01-19T15:45:59.474Z,28.00
2023-01-19T15:48:25.994Z,24.00
2023-01-19T15:50:52.478Z,30.00
2023-01-19T15:53:20.184Z,23.80
2023-01-19T15:55:55.366Z,17.00
2023-01-19T15:58:23.541Z,27.25
2023-01-19T16:00:56.701Z,25.00
2023-01-19T16:03:23.932Z,18.20
2023-01-19T16:05:50.422Z,13.00
2023-01-19T16:08:17.268Z,28.00
2023-01-19T16:10:44.027Z,26.50
2023-01-19T16:13:11.408Z,29.50
2023-01-19T16:15:38.775Z,23.75
2023-01-19T16:18:05.594Z,24.20
2023-01-19T16:20:32.077Z,17.00
2023-01-19T16:23:09.683Z,21.40
2023-01-19T16:25:40.598Z,21.75
2023-01-19T16:28:08.273Z,22.00
2023-01-19T16:30:34.792Z,20.60
2023-01-19T16:33:01.344Z,29.00
2023-01-19T16:35:27.749Z,18.00
2023-01-19T16:37:54.360Z,27.20
2023-01-19T16:40:21.209Z,23.50
2023-01-19T16:42:47.753Z,22.60
2023-01-19T16:45:14.485Z,28.40
2023-01-19T16:47:41.186Z,31.00
2023-01-19T16:50:10.469Z,21.00
2023-01-19T16:52:36.987Z,30.50
2023-01-19T16:55:07.044Z,37.00
2023-01-19T16:57:33.557Z,40.50
2023-01-19T17:00:00.113Z,42.20
2023-01-19T17:02:26.729Z,34.20
2023-01-19T17:04:53.245Z,36.40
2023-01-19T17:07:19.748Z,28.00
2023-01-19T17:09:46.214Z,21.00
2023-01-19T17:12:13.274Z,22.00
2023-01-19T17:14:39.821Z,20.25
2023-01-19T17:17:09.306Z,20.00
2023-01-19T17:19:35.816Z,8.00
2023-01-19T17:22:02.402Z,9.00
2023-01-19T17:24:28.916Z,8.00
2023-01-19T17:26:55.362Z,13.00
2023-01-19T17:29:21.883Z,9.60
2023-01-19T17:31:50.314Z,15.00
2023-01-19T17:34:17.151Z,15.50
2023-01-19T17:36:43.650Z,21.50
2023-01-19T17:39:14.201Z,27.00
2023-01-19T17:41:42.178Z,12.00
2023-01-19T17:44:09.384Z,12.75
2023-01-19T17:46:36.906Z,7.00
2023-01-19T17:49:21.290Z,6.00
2023-01-19T17:51:51.879Z,8.00
2023-01-19T17:54:18.369Z,10.25
2023-01-19T17:56:44.844Z,29.50
2023-01-19T17:59:11.326Z,20.75
2023-01-19T18:01:40.141Z,35.00
2023-01-19T18:04:07.415Z,36.50
2023-01-19T18:06:34.074Z,33.00
2023-01-19T18:09:00.525Z,29.00
2023-01-19T18:11:27.049Z,45.20
2023-01-19T18:13:53.670Z,27.00
2023-01-19T18:16:24.227Z,36.00
2023-01-19T18:18:52.342Z,27.50
2023-01-19T18:21:20.294Z,15.60
2023-01-19T18:23:46.742Z,12.00
2023-01-19T18:26:15.087Z,13.50
2023-01-19T18:28:41.627Z,8.00
2023-01-19T18:31:09.399Z,30.80
2023-01-19T18:33:36.389Z,23.00
2023-01-19T18:36:03.350Z,19.40
2023-01-19T18:38:29.896Z,17.00
2023-01-19T18:41:03.488Z,22.40
2023-01-19T18:43:29.956Z,21.25
2023-01-19T18:45:56.542Z,17.75
2023-01-19T18:48:23.259Z,20.50
2023-01-19T18:50:50.149Z,16.60
2023-01-19T18:53:16.656Z,20.20
2023-01-19T18:56:04.903Z,10.00
2023-01-19T18:58:31.989Z,16.00
2023-01-19T19:00:59.315Z,21.00
2023-01-19T19:03:26.290Z,20.60
2023-01-19T19:05:52.781Z,12.80
2023-01-19T19:08:19.286Z,18.00
2023-01-19T19:10:46.121Z,15.40
2023-01-19T19:13:13.590Z,14.40
2023-01-19T19:15:40.307Z,21.00
2023-01-19T19:18:09.007Z,11.00
2023-01-19T19:20:38.621Z,15.00
2023-01-19T19:23:05.091Z,8.00
2023-01-19T19:25:32.297Z,14.00
2023-01-19T19:27:58.796Z,15.00
2023-01-19T19:30:25.612Z,13.80
2023-01-19T19:32:53.692Z,15.00
2023-01-19T19:35:21.216Z,13.75
2023-01-19T19:37:48.550Z,10.00
2023-01-19T19:40:15.218Z,11.00
2023-01-19T19:42:41.928Z,15.60
2023-01-19T19:45:08.754Z,21.50
2023-01-19T19:47:35.401Z,29.20
2023-01-19T19:50:01.851Z,30.40
2023-01-19T19:52:28.317Z,23.75
2023-01-19T19:54:54.836Z,22.40
2023-01-19T19:57:21.382Z,22.75
2023-01-19T19:59:47.876Z,21.40
2023-01-19T20:02:14.417Z,24.00
2023-01-19T20:04:40.991Z,23.40
2023-01-19T20:07:07.499Z,24.00
2023-01-19T20:09:33.953Z,13.20
2023-01-19T20:12:00.550Z,9.00
2023-01-19T20:14:26.981Z,10.00
2023-01-19T20:16:54.402Z,6.00
2023-01-19T20:19:20.887Z,7.00
2023-01-19T20:21:47.420Z,11.80
2023-01-19T20:24:15.769Z,11.40
2023-01-19T20:26:44.121Z,10.00
2023-01-19T20:29:11.108Z,10.00
2023-01-19T20:31:39.802Z,10.50
2023-01-19T20:34:07.562Z,15.60
2023-01-19T20:36:34.088Z,13.00
2023-01-19T20:39:00.684Z,14.00
2023-01-19T20:41:27.239Z,16.40
2023-01-19T20:43:53.783Z,12.00
2023-01-19T20:46:20.391Z,13.00
2023-01-19T20:48:50.852Z,15.00
2023-01-19T20:51:18.863Z,20.25
2023-01-19T20:53:45.512Z,18.50
2023-01-19T20:56:12.780Z,16.20
2023-01-19T20:58:39.790Z,22.00
2023-01-19T21:01:14.126Z,18.40
2023-01-19T21:03:40.771Z,13.00
2023-01-19T21:06:07.347Z,14.80
2023-01-19T21:08:33.996Z,14.50
2023-01-19T21:11:00.576Z,26.00
2023-01-19T21:13:27.204Z,18.00
2023-01-19T21:15:53.903Z,21.00
2023-01-19T21:18:20.435Z,18.80
2023-01-19T21:20:50.018Z,12.20
2023-01-19T21:23:16.547Z,12.20
2023-01-19T21:25:51.071Z,13.00
2023-01-19T21:28:20.338Z,14.00
2023-01-19T21:30:46.808Z,16.50
2023-01-19T21:33:13.548Z,15.00
2023-01-19T21:35:40.098Z,13.80
2023-01-19T21:38:06.569Z,14.25
2023-01-19T21:40:33.030Z,13.25
2023-01-19T21:42:59.502Z,13.20
2023-01-19T21:45:26.098Z,17.20
2023-01-19T21:47:52.593Z,14.60
2023-01-19T21:50:19.569Z,13.40
2023-01-19T21:52:46.127Z,12.20
2023-01-19T21:55:12.929Z,15.00
2023-01-19T21:57:39.584Z,16.50
2023-01-19T22:00:06.536Z,16.00
2023-01-19T22:02:38.604Z,16.00
2023-01-19T22:05:06.604Z,16.00
2023-01-19T22:07:33.222Z,15.20
2023-01-19T22:09:59.744Z,16.00
2023-01-19T22:12:26.414Z,17.00
2023-01-19T22:14:53.118Z,16.00
2023-01-19T22:17:19.594Z,16.00
2023-01-19T22:19:46.095Z,16.00
2023-01-19T22:22:12.628Z,15.60
2023-01-19T22:24:39.479Z,14.20
2023-01-19T22:27:05.936Z,15.00
2023-01-19T22:29:32.385Z,14.40
2023-01-19T22:31:58.879Z,14.20
2023-01-19T22:34:25.407Z,14.00
2023-01-19T22:36:51.857Z,14.00
2023-01-19T22:39:18.341Z,14.00
2023-01-19T22:41:46.004Z,12.50
2023-01-19T22:44:13.599Z,13.80
2023-01-19T22:46:40.026Z,16.00
2023-01-19T22:49:07.701Z,13.00
2023-01-19T22:51:34.657Z,14.00
2023-01-19T22:54:01.252Z,9.00
2023-01-19T22:56:28.822Z,12.25
2023-01-19T22:58:55.517Z,10.00
2023-01-19T23:01:26.720Z,12.60
2023-01-19T23:03:54.097Z,12.75
2023-01-19T23:06:21.787Z,12.00
2023-01-19T23:08:49.213Z,12.00
2023-01-19T23:11:17.237Z,12.00
2023-01-19T23:13:43.901Z,8.00
2023-01-19T23:16:10.780Z,8.00
2023-01-19T23:18:37.567Z,7.75
2023-01-19T23:21:04.066Z,9.00
2023-01-19T23:23:30.556Z,9.00
2023-01-19T23:26:03.977Z,8.00
2023-01-19T23:28:30.794Z,8.00
2023-01-19T23:30:57.438Z,8.00
2023-01-19T23:33:23.948Z,9.40
2023-01-19T23:35:50.365Z,7.00
2023-01-19T23:38:17.035Z,11.00
2023-01-19T23:40:43.521Z,11.75
2023-01-19T23:43:09.978Z,9.00
2023-01-19T23:45:36.434Z,8.00
2023-01-19T23:48:03.863Z,9.80
2023-01-19T23:50:30.641Z,8.00
2023-01-19T23:52:57.143Z,9.20
2023-01-19T23:55:23.624Z,12.00
2023-01-19T23:57:50.056Z,8.00
